createdAt,value
2018-01-15T00:02:24.176Z,-1.54
2018-01-15T00:08:28.200Z,-1.60
2018-01-15T00:14:31.781Z,-1.72
2018-01-15T00:20:35.246Z,-1.75
2018-01-15T00:26:38.729Z,-1.73
2018-01-15T00:32:42.962Z,-1.73
2018-01-15T00:38:46.450Z,-1.77
2018-01-15T00:44:49.955Z,-1.78
2018-01-15T00:50:53.417Z,-1.76
2018-01-15T00:56:56.906Z,-1.69
2018-01-15T01:03:01.447Z,-1.64
2018-01-15T01:09:05.127Z,-1.55
2018-01-15T01:15:08.597Z,-1.43
2018-01-15T01:21:13.646Z,-1.43
2018-01-15T01:27:17.275Z,-1.36
2018-01-15T01:33:20.713Z,-1.48
2018-01-15T01:39:25.017Z,-1.41
2018-01-15T01:45:28.622Z,-1.58
2018-01-15T01:51:32.107Z,-1.66
2018-01-15T01:57:35.592Z,-1.67
2018-01-15T02:03:39.069Z,-1.62
2018-01-15T02:09:42.696Z,-1.50
2018-01-15T02:15:46.176Z,-1.35
2018-01-15T02:21:49.658Z,-1.31
2018-01-15T02:27:53.987Z,-1.35
2018-01-15T02:33:57.682Z,-1.19
2018-01-15T02:40:01.985Z,-1.17
2018-01-15T02:46:05.458Z,-1.03
2018-01-15T02:52:08.970Z,-1.08
2018-01-15T02:58:13.217Z,-1.14
2018-01-15T03:04:16.722Z,-1.34
2018-01-15T03:10:20.181Z,-1.48
2018-01-15T03:16:24.154Z,-1.57
2018-01-15T03:22:27.916Z,-1.62
2018-01-15T03:28:31.577Z,-1.65
2018-01-15T03:34:35.359Z,-1.70
2018-01-15T03:40:38.910Z,-1.77
2018-01-15T03:46:42.389Z,-1.70
2018-01-15T03:52:45.867Z,-1.73
2018-01-15T03:58:49.318Z,-1.80
2018-01-15T04:04:53.061Z,-1.88
2018-01-15T04:10:57.537Z,-1.79
2018-01-15T04:17:01.787Z,-1.83
2018-01-15T04:23:05.250Z,-1.91
2018-01-15T04:29:08.741Z,-1.89
2018-01-15T04:35:12.240Z,-1.95
2018-01-15T04:41:15.704Z,-2.01
2018-01-15T04:47:19.277Z,-1.96
2018-01-15T04:53:23.634Z,-2.05
2018-01-15T04:59:27.254Z,-2.08
2018-01-15T05:05:30.769Z,-2.13
2018-01-15T05:11:35.135Z,-2.03
2018-01-15T05:17:39.481Z,-2.14
2018-01-15T05:23:42.950Z,-2.12
2018-01-15T05:29:46.464Z,-2.11
2018-01-15T05:35:50.066Z,-2.14
2018-01-15T05:41:53.840Z,-2.12
2018-01-15T05:47:57.555Z,-2.18
2018-01-15T05:54:01.162Z,-2.12
2018-01-15T06:00:04.687Z,-2.03
2018-01-15T06:06:08.980Z,-2.01
2018-01-15T06:12:12.551Z,-1.85
2018-01-15T06:18:16.053Z,-1.70
2018-01-15T06:24:19.576Z,-1.67
2018-01-15T06:30:23.976Z,-1.38
2018-01-15T06:36:27.525Z,-1.21
2018-01-15T06:42:31.079Z,-0.94
2018-01-15T06:48:34.574Z,-0.65
2018-01-15T06:54:38.042Z,-0.42
2018-01-15T07:00:42.481Z,-0.27
2018-01-15T07:06:45.949Z,-0.14
2018-01-15T07:12:49.554Z,-0.10
2018-01-15T07:18:53.058Z,-0.13
2018-01-15T07:24:56.886Z,-0.09
2018-01-15T07:31:00.432Z,-0.04
2018-01-15T07:37:03.912Z,-0.15
2018-01-15T07:43:07.387Z,-0.10
2018-01-15T07:49:11.159Z,0.06
2018-01-15T07:55:15.392Z,0.02
2018-01-15T08:01:18.882Z,0.03
2018-01-15T08:07:23.188Z,0.17
2018-01-15T08:13:27.115Z,0.28
2018-01-15T08:19:30.590Z,0.40
2018-01-15T08:25:34.881Z,0.45
2018-01-15T08:31:38.517Z,0.44
2018-01-15T08:37:42.823Z,0.55
2018-01-15T08:43:46.479Z,0.68
2018-01-15T08:49:49.937Z,0.79
2018-01-15T08:55:53.427Z,0.79
2018-01-15T09:01:56.987Z,0.74
2018-01-15T09:08:00.654Z,0.82
2018-01-15T09:14:05.208Z,1.03
2018-01-15T09:20:09.525Z,1.10
2018-01-15T09:26:13.019Z,1.32
2018-01-15T09:32:16.509Z,1.35
2018-01-15T09:38:19.992Z,1.46
2018-01-15T09:44:23.607Z,1.58
2018-01-15T09:50:27.127Z,1.73
2018-01-15T09:56:30.673Z,1.74
2018-01-15T10:02:34.152Z,1.85
2018-01-15T10:08:37.654Z,2.06
2018-01-15T10:14:41.981Z,2.23
2018-01-15T10:20:45.450Z,2.22
2018-01-15T10:26:48.981Z,2.43
2018-01-15T10:32:52.462Z,2.50
2018-01-15T10:38:56.374Z,2.48
2018-01-15T10:45:00.151Z,2.72
2018-01-15T10:51:03.755Z,2.83
2018-01-15T10:57:07.269Z,2.87
2018-01-15T11:03:10.792Z,2.96
2018-01-15T11:09:14.276Z,2.84
2018-01-15T11:15:17.871Z,2.77
2018-01-15T11:21:21.473Z,2.77
2018-01-15T11:27:25.294Z,2.77
2018-01-15T11:33:28.857Z,2.84
2018-01-15T11:39:33.085Z,2.90
2018-01-15T11:45:36.615Z,2.97
2018-01-15T11:51:40.095Z,3.09
2018-01-15T11:57:43.586Z,3.07
2018-01-15T12:03:47.837Z,3.08
2018-01-15T12:09:51.286Z,3.36
2018-01-15T12:15:54.757Z,3.53
2018-01-15T12:21:59.232Z,3.61
2018-01-15T12:28:02.779Z,3.52
2018-01-15T12:34:06.372Z,3.44
2018-01-15T12:40:09.991Z,3.49
2018-01-15T12:46:13.468Z,3.42
2018-01-15T12:52:17.733Z,3.51
2018-01-15T12:58:21.945Z,3.52
2018-01-15T13:04:25.430Z,3.60
2018-01-15T13:10:29.328Z,3.44
2018-01-15T13:16:32.848Z,3.45
2018-01-15T13:22:36.348Z,3.44
2018-01-15T13:28:40.100Z,3.50
2018-01-15T13:34:44.346Z,3.36
2018-01-15T13:40:48.617Z,3.32
2018-01-15T13:46:52.149Z,3.38
2018-01-15T13:52:55.839Z,3.36
2018-01-15T13:58:59.391Z,3.27
2018-01-15T14:05:02.876Z,3.22
2018-01-15T14:11:06.570Z,3.15
2018-01-15T14:17:10.029Z,3.13
2018-01-15T14:23:13.492Z,2.95
2018-01-15T14:29:18.178Z,2.92
2018-01-15T14:35:21.645Z,2.98
2018-01-15T14:41:25.613Z,3.04
2018-01-15T14:47:29.223Z,3.06
2018-01-15T14:53:32.767Z,3.08
2018-01-15T14:59:36.227Z,3.03
2018-01-15T15:05:40.480Z,2.91
2018-01-15T15:11:43.937Z,3.02
2018-01-15T15:17:47.414Z,2.97
2018-01-15T15:23:50.895Z,2.91
2018-01-15T15:29:55.355Z,2.91
2018-01-15T15:35:59.092Z,2.87
2018-01-15T15:42:02.647Z,2.90
2018-01-15T15:48:06.296Z,2.88
2018-01-15T15:54:09.825Z,2.88
2018-01-15T16:00:14.194Z,2.87
2018-01-15T16:06:18.477Z,2.83
2018-01-15T16:12:21.948Z,2.86
2018-01-15T16:18:26.277Z,2.88
2018-01-15T16:24:30.635Z,2.92
2018-01-15T16:30:34.436Z,2.89
2018-01-15T16:36:37.949Z,2.95
2018-01-15T16:42:41.426Z,2.98
2018-01-15T16:48:44.929Z,2.98
2018-01-15T16:54:48.442Z,2.89
2018-01-15T17:00:52.682Z,2.92
2018-01-15T17:06:56.198Z,2.88
2018-01-15T17:13:00.595Z,3.03
2018-01-15T17:19:04.059Z,2.98
2018-01-15T17:25:07.679Z,3.05
2018-01-15T17:31:11.201Z,3.06
2018-01-15T17:37:14.761Z,3.05
2018-01-15T17:43:19.045Z,3.03
2018-01-15T17:49:24.095Z,3.11
2018-01-15T17:55:27.667Z,3.11
2018-01-15T18:01:31.223Z,3.25
2018-01-15T18:07:34.713Z,3.26
2018-01-15T18:13:38.248Z,3.25
2018-01-15T18:19:42.536Z,3.31
2018-01-15T18:25:47.006Z,3.32
2018-01-15T18:31:51.221Z,3.40
2018-01-15T18:37:54.826Z,3.42
2018-01-15T18:43:59.113Z,3.50
2018-01-15T18:50:02.583Z,3.56
2018-01-15T18:56:06.053Z,3.56
2018-01-15T19:02:09.543Z,3.57
2018-01-15T19:08:13.018Z,3.54
2018-01-15T19:14:17.260Z,3.49
2018-01-15T19:20:20.759Z,3.56
2018-01-15T19:26:24.264Z,3.50
2018-01-15T19:32:27.741Z,3.52
2018-01-15T19:38:33.246Z,3.57
2018-01-15T19:44:42.983Z,3.56
2018-01-15T19:57:27.177Z,3.54
2018-01-15T20:03:36.088Z,3.44
2018-01-15T20:09:45.830Z,3.39
2018-01-15T20:15:49.292Z,3.40
2018-01-15T20:21:53.024Z,3.41
2018-01-15T20:27:57.945Z,3.45
2018-01-15T20:34:01.416Z,3.51
2018-01-15T20:40:04.908Z,3.59
2018-01-15T20:46:08.440Z,3.65
2018-01-15T20:52:11.909Z,3.69
2018-01-15T20:58:16.290Z,3.66
2018-01-15T21:04:20.771Z,3.69
2018-01-15T21:10:25.416Z,3.77
2018-01-15T21:16:29.007Z,3.86
2018-01-15T21:22:32.447Z,3.89
2018-01-15T21:28:35.947Z,4.00
2018-01-15T21:34:39.428Z,3.96
2018-01-15T21:40:42.885Z,4.00
2018-01-15T21:46:46.490Z,4.08
2018-01-15T21:52:50.063Z,4.09
2018-01-15T21:58:54.996Z,4.08
2018-01-15T22:04:58.555Z,4.03
2018-01-15T22:11:01.987Z,4.04
2018-01-15T22:17:05.806Z,4.07
2018-01-15T22:23:09.591Z,4.29
2018-01-15T22:29:13.109Z,4.34
2018-01-15T22:35:16.643Z,4.29
2018-01-15T22:41:20.135Z,4.34
2018-01-15T22:47:23.700Z,4.32
2018-01-15T22:53:28.027Z,4.33
2018-01-15T22:59:31.559Z,4.29
2018-01-15T23:05:35.005Z,4.33
2018-01-15T23:11:38.444Z,4.35
2018-01-15T23:17:42.694Z,4.34
2018-01-15T23:23:46.145Z,4.37
2018-01-15T23:29:49.609Z,4.35
2018-01-15T23:35:54.094Z,4.35
2018-01-15T23:41:57.957Z,4.38
2018-01-15T23:48:02.265Z,4.42
2018-01-15T23:54:05.823Z,4.49
